createdAt,value
2022-12-23T00:00:00.829Z,995.39
2022-12-23T00:00:33.328Z,995.42
2022-12-23T00:01:05.811Z,995.43
2022-12-23T00:01:38.393Z,995.45
2022-12-23T00:02:10.953Z,995.43
2022-12-23T00:02:43.518Z,995.41
2022-12-23T00:03:15.965Z,995.43
2022-12-23T00:03:48.404Z,995.42
2022-12-23T00:04:20.938Z,995.45
2022-12-23T00:04:53.350Z,995.40
2022-12-23T00:05:25.852Z,995.42
2022-12-23T00:05:58.375Z,995.40
2022-12-23T00:06:30.865Z,995.43
2022-12-23T00:07:03.384Z,995.39
2022-12-23T00:07:35.889Z,995.43
2022-12-23T00:08:08.482Z,995.40
2022-12-23T00:08:40.910Z,995.42
2022-12-23T00:09:13.400Z,995.41
2022-12-23T00:09:45.871Z,995.39
2022-12-23T00:10:18.413Z,995.39
2022-12-23T00:10:50.972Z,995.36
2022-12-23T00:11:23.400Z,995.35
2022-12-23T00:11:55.934Z,995.36
2022-12-23T00:12:28.433Z,995.40
2022-12-23T00:13:00.871Z,995.36
2022-12-23T00:13:33.350Z,995.39
2022-12-23T00:14:05.799Z,995.37
2022-12-23T00:14:38.233Z,995.36
2022-12-23T00:15:10.695Z,995.36
2022-12-23T00:15:43.130Z,995.35
2022-12-23T00:16:15.671Z,995.37
2022-12-23T00:16:48.106Z,995.34
2022-12-23T00:17:23.499Z,995.34
2022-12-23T00:17:53.054Z,995.38
2022-12-23T00:18:25.487Z,995.34
2022-12-23T00:18:57.929Z,995.33
2022-12-23T00:19:30.409Z,995.37
2022-12-23T00:20:02.969Z,995.30
2022-12-23T00:20:35.464Z,995.33
2022-12-23T00:21:09.120Z,995.33
2022-12-23T00:21:41.079Z,995.32
2022-12-23T00:22:13.615Z,995.33
2022-12-23T00:22:46.127Z,995.34
2022-12-23T00:23:18.592Z,995.33
2022-12-23T00:23:51.045Z,995.31
2022-12-23T00:24:23.485Z,995.33
2022-12-23T00:24:55.983Z,995.35
2022-12-23T00:25:28.537Z,995.33
2022-12-23T00:26:00.980Z,995.33
2022-12-23T00:26:33.434Z,995.34
2022-12-23T00:27:05.952Z,995.33
2022-12-23T00:27:38.536Z,995.33
2022-12-23T00:28:10.961Z,995.36
2022-12-23T00:28:43.498Z,995.35
2022-12-23T00:29:16.009Z,995.36
2022-12-23T00:29:48.470Z,995.36
2022-12-23T00:30:20.935Z,995.33
2022-12-23T00:30:53.418Z,995.38
2022-12-23T00:31:25.919Z,995.34
2022-12-23T00:31:58.408Z,995.35
2022-12-23T00:32:30.905Z,995.34
2022-12-23T00:33:03.420Z,995.34
2022-12-23T00:33:35.909Z,995.33
2022-12-23T00:34:08.423Z,995.37
2022-12-23T00:34:41.037Z,995.35
2022-12-23T00:35:13.512Z,995.37
2022-12-23T00:35:46.031Z,995.40
2022-12-23T00:36:18.534Z,995.38
2022-12-23T00:36:50.925Z,995.42
2022-12-23T00:37:23.403Z,995.41
2022-12-23T00:37:55.889Z,995.43
2022-12-23T00:38:28.320Z,995.43
2022-12-23T00:39:00.774Z,995.43
2022-12-23T00:39:33.263Z,995.44
2022-12-23T00:40:06.993Z,995.45
2022-12-23T00:40:38.269Z,995.42
2022-12-23T00:41:10.704Z,995.43
2022-12-23T00:41:43.135Z,995.45
2022-12-23T00:42:15.625Z,995.46
2022-12-23T00:42:48.133Z,995.44
2022-12-23T00:43:20.731Z,995.45
2022-12-23T00:43:53.220Z,995.47
2022-12-23T00:44:25.690Z,995.45
2022-12-23T00:44:58.167Z,995.46
2022-12-23T00:45:30.654Z,995.47
2022-12-23T00:46:03.206Z,995.46
2022-12-23T00:46:35.673Z,995.44
2022-12-23T00:47:08.100Z,995.45
2022-12-23T00:47:40.593Z,995.44
2022-12-23T00:48:13.070Z,995.44
2022-12-23T00:48:45.618Z,995.40
2022-12-23T00:49:18.113Z,995.41
2022-12-23T00:49:50.612Z,995.40
2022-12-23T00:50:23.086Z,995.43
2022-12-23T00:50:55.619Z,995.41
2022-12-23T00:51:28.099Z,995.37
2022-12-23T00:52:00.627Z,995.39
2022-12-23T00:52:33.113Z,995.35
2022-12-23T00:53:05.683Z,995.35
2022-12-23T00:53:38.191Z,995.37
2022-12-23T00:54:10.664Z,995.34
2022-12-23T00:54:43.133Z,995.34
2022-12-23T00:55:15.647Z,995.35
2022-12-23T00:55:48.152Z,995.36
2022-12-23T00:56:20.652Z,995.35
2022-12-23T00:56:53.108Z,995.37
2022-12-23T00:57:25.579Z,995.35
2022-12-23T00:57:58.056Z,995.33
2022-12-23T00:58:30.529Z,995.34
2022-12-23T00:59:03.012Z,995.37
2022-12-23T00:59:35.433Z,995.34
2022-12-23T01:00:07.896Z,995.33
2022-12-23T01:00:40.437Z,995.35
2022-12-23T01:01:13.023Z,995.34
2022-12-23T01:01:45.674Z,995.35
2022-12-23T01:02:18.225Z,995.35
2022-12-23T01:02:50.764Z,995.35
2022-12-23T01:03:23.121Z,995.35
2022-12-23T01:04:14.896Z,995.39
2022-12-23T01:04:47.379Z,995.42
2022-12-23T01:05:19.879Z,995.43
2022-12-23T01:05:52.418Z,995.41
2022-12-23T01:06:24.957Z,995.39
2022-12-23T01:06:57.482Z,995.39
2022-12-23T01:07:29.946Z,995.40
2022-12-23T01:08:02.407Z,995.43
2022-12-23T01:08:34.854Z,995.44
2022-12-23T01:09:07.356Z,995.42
2022-12-23T01:09:39.870Z,995.43
2022-12-23T01:10:12.437Z,995.44
2022-12-23T01:10:44.934Z,995.46
2022-12-23T01:11:17.486Z,995.44
2022-12-23T01:11:49.979Z,995.46
2022-12-23T01:12:22.534Z,995.47
2022-12-23T01:12:55.044Z,995.48
2022-12-23T01:13:27.560Z,995.47
2022-12-23T01:14:00.024Z,995.47
2022-12-23T01:14:32.456Z,995.49
2022-12-23T01:15:04.965Z,995.46
2022-12-23T01:15:37.507Z,995.46
2022-12-23T01:16:14.985Z,995.47
2022-12-23T01:16:42.562Z,995.47
2022-12-23T01:17:15.083Z,995.53
2022-12-23T01:17:47.539Z,995.49
2022-12-23T01:18:20.065Z,995.50
2022-12-23T01:18:52.561Z,995.51
2022-12-23T01:19:24.997Z,995.51
2022-12-23T01:19:57.486Z,995.53
2022-12-23T01:20:29.994Z,995.53
2022-12-23T01:21:02.431Z,995.53
2022-12-23T01:21:34.877Z,995.53
2022-12-23T01:22:07.308Z,995.56
2022-12-23T01:22:39.795Z,995.55
2022-12-23T01:23:12.366Z,995.55
2022-12-23T01:23:44.805Z,995.53
2022-12-23T01:24:17.328Z,995.54
2022-12-23T01:24:49.786Z,995.54
2022-12-23T01:25:22.311Z,995.55
2022-12-23T01:25:54.782Z,995.56
2022-12-23T01:26:27.215Z,995.57
2022-12-23T01:26:59.745Z,995.55
2022-12-23T01:27:32.253Z,995.57
2022-12-23T01:28:04.703Z,995.58
2022-12-23T01:28:37.230Z,995.57
2022-12-23T01:29:09.680Z,995.55
2022-12-23T01:29:42.134Z,995.56
2022-12-23T01:30:14.572Z,995.58
2022-12-23T01:30:47.026Z,995.56
2022-12-23T01:31:19.491Z,995.58
2022-12-23T01:31:52.036Z,995.57
2022-12-23T01:32:24.356Z,995.56
2022-12-23T01:32:56.794Z,995.58
2022-12-23T01:33:29.277Z,995.58
2022-12-23T01:34:01.720Z,995.61
2022-12-23T01:34:37.204Z,995.60
2022-12-23T01:35:06.587Z,995.65
2022-12-23T01:35:39.016Z,995.65
2022-12-23T01:36:11.535Z,995.67
2022-12-23T01:36:44.041Z,995.67
2022-12-23T01:37:16.578Z,995.66
2022-12-23T01:37:49.099Z,995.66
2022-12-23T01:38:21.600Z,995.66
2022-12-23T01:38:54.037Z,995.64
2022-12-23T01:39:26.525Z,995.64
2022-12-23T01:39:59.040Z,995.65
2022-12-23T01:40:31.546Z,995.66
2022-12-23T01:41:03.985Z,995.67
2022-12-23T01:41:36.432Z,995.70
2022-12-23T01:42:08.869Z,995.70
2022-12-23T01:42:41.367Z,995.72
2022-12-23T01:43:13.875Z,995.71
2022-12-23T01:43:46.382Z,995.71
2022-12-23T01:44:18.812Z,995.73
2022-12-23T01:44:51.265Z,995.72
2022-12-23T01:45:23.770Z,995.72
2022-12-23T01:45:56.353Z,995.72
2022-12-23T01:46:28.830Z,995.72
2022-12-23T01:47:01.279Z,995.72
2022-12-23T01:47:33.727Z,995.72
2022-12-23T01:48:06.257Z,995.74
2022-12-23T01:48:38.700Z,995.71
2022-12-23T01:49:11.228Z,995.72
2022-12-23T01:49:43.683Z,995.72
2022-12-23T01:50:16.162Z,995.75
2022-12-23T01:50:48.625Z,995.73
2022-12-23T01:51:21.062Z,995.73
2022-12-23T01:51:53.541Z,995.75
2022-12-23T01:52:26.033Z,995.80
2022-12-23T01:53:02.997Z,995.77
2022-12-23T01:53:31.068Z,995.79
2022-12-23T01:54:03.595Z,995.81
2022-12-23T01:54:36.192Z,995.82
2022-12-23T01:55:08.718Z,995.81
2022-12-23T01:55:41.231Z,995.83
2022-12-23T01:56:13.820Z,995.84
2022-12-23T01:56:46.327Z,995.85
2022-12-23T01:57:18.801Z,995.86
2022-12-23T01:57:51.248Z,995.86
2022-12-23T01:58:23.696Z,995.83
2022-12-23T01:58:56.268Z,995.88
2022-12-23T01:59:28.818Z,995.87
2022-12-23T02:00:01.343Z,995.85
2022-12-23T02:00:33.846Z,995.90
2022-12-23T02:01:06.376Z,995.87
2022-12-23T02:01:38.950Z,995.89
2022-12-23T02:02:11.493Z,995.88
2022-12-23T02:02:43.962Z,995.92
2022-12-23T02:03:16.348Z,995.92
2022-12-23T02:03:48.753Z,995.94
2022-12-23T02:04:21.299Z,995.91
2022-12-23T02:04:53.910Z,995.93
2022-12-23T02:05:26.375Z,995.93
2022-12-23T02:05:58.805Z,995.97
2022-12-23T02:06:31.327Z,995.98
2022-12-23T02:07:03.855Z,995.96
2022-12-23T02:07:36.308Z,995.95
2022-12-23T02:08:08.754Z,995.96
2022-12-23T02:08:41.193Z,995.95
2022-12-23T02:09:13.719Z,995.98
2022-12-23T02:09:46.222Z,995.94
2022-12-23T02:10:18.680Z,995.94
2022-12-23T02:10:51.140Z,995.96
2022-12-23T02:11:23.604Z,995.95
2022-12-23T02:11:56.069Z,995.96
2022-12-23T02:12:28.509Z,995.95
2022-12-23T02:13:00.968Z,995.98
2022-12-23T02:13:33.387Z,995.96
2022-12-23T02:14:05.848Z,995.95
2022-12-23T02:14:38.412Z,995.99
2022-12-23T02:15:10.891Z,996.00
2022-12-23T02:15:43.316Z,995.96
2022-12-23T02:16:15.889Z,995.98
2022-12-23T02:16:48.348Z,995.97
2022-12-23T02:17:20.805Z,995.98
2022-12-23T02:17:53.233Z,995.99
2022-12-23T02:18:25.671Z,995.98
2022-12-23T02:18:58.136Z,995.96
2022-12-23T02:19:30.601Z,996.01
2022-12-23T02:20:03.111Z,996.01
2022-12-23T02:20:35.560Z,996.01
2022-12-23T02:21:08.158Z,996.01
2022-12-23T02:21:40.618Z,996.03
2022-12-23T02:22:13.153Z,996.02
2022-12-23T02:22:45.620Z,996.03
2022-12-23T02:23:18.143Z,996.06
2022-12-23T02:23:50.640Z,996.09
2022-12-23T02:24:23.151Z,996.04
2022-12-23T02:24:55.587Z,996.08
2022-12-23T02:25:28.096Z,996.08
2022-12-23T02:26:00.576Z,996.07
2022-12-23T02:26:33.072Z,996.08
2022-12-23T02:27:05.537Z,996.08
2022-12-23T02:27:38.049Z,996.07
2022-12-23T02:28:10.567Z,996.06
2022-12-23T02:28:43.083Z,996.05
2022-12-23T02:29:15.597Z,996.03
2022-12-23T02:29:48.035Z,996.03
2022-12-23T02:30:20.549Z,996.02
2022-12-23T02:30:53.130Z,996.01
2022-12-23T02:31:25.660Z,996.03
2022-12-23T02:31:58.217Z,996.03
2022-12-23T02:32:30.743Z,996.03
2022-12-23T02:33:03.312Z,995.98
2022-12-23T02:33:35.778Z,996.04
2022-12-23T02:34:08.291Z,996.00
2022-12-23T02:34:40.756Z,996.02
2022-12-23T02:35:13.217Z,995.99
2022-12-23T02:35:45.821Z,995.96
2022-12-23T02:36:18.296Z,995.98
2022-12-23T02:36:50.732Z,995.98
2022-12-23T02:37:23.233Z,995.98
2022-12-23T02:37:56.644Z,995.99
2022-12-23T02:38:29.155Z,995.99
2022-12-23T02:39:01.666Z,995.98
2022-12-23T02:39:34.138Z,995.99
2022-12-23T02:40:06.590Z,996.01
2022-12-23T02:40:39.024Z,996.04
2022-12-23T02:41:11.474Z,996.05
2022-12-23T02:41:43.913Z,996.05
2022-12-23T02:42:16.476Z,996.09
2022-12-23T02:42:49.064Z,996.06
2022-12-23T02:43:21.544Z,996.09
2022-12-23T02:43:53.989Z,996.12
2022-12-23T02:44:26.473Z,996.13
2022-12-23T02:44:58.907Z,996.17
2022-12-23T02:45:31.449Z,996.16
2022-12-23T02:46:04.016Z,996.18
2022-12-23T02:46:36.553Z,996.18
2022-12-23T02:47:09.105Z,996.16
2022-12-23T02:47:41.743Z,996.17
2022-12-23T02:48:14.247Z,996.17
2022-12-23T02:48:46.748Z,996.15
2022-12-23T02:49:19.210Z,996.17
2022-12-23T02:49:51.660Z,996.17
2022-12-23T02:50:24.179Z,996.18
2022-12-23T02:50:56.672Z,996.17
2022-12-23T02:51:29.130Z,996.19
2022-12-23T02:52:01.585Z,996.18
2022-12-23T02:52:34.094Z,996.20
2022-12-23T02:53:06.657Z,996.19
2022-12-23T02:53:39.187Z,996.21
2022-12-23T02:54:11.693Z,996.20
2022-12-23T02:54:44.184Z,996.20
2022-12-23T02:55:16.763Z,996.21
2022-12-23T02:55:49.298Z,996.21
2022-12-23T02:56:21.833Z,996.22
2022-12-23T02:56:54.402Z,996.23
2022-12-23T02:57:26.966Z,996.26
2022-12-23T02:57:59.399Z,996.27
2022-12-23T02:58:32.005Z,996.28
2022-12-23T02:59:04.429Z,996.28
2022-12-23T02:59:36.977Z,996.29
2022-12-23T03:00:09.519Z,996.30
2022-12-23T03:00:42.055Z,996.31
2022-12-23T03:01:14.590Z,996.32
2022-12-23T03:01:47.190Z,996.34
2022-12-23T03:02:19.729Z,996.35
2022-12-23T03:02:52.167Z,996.36
2022-12-23T03:03:24.617Z,996.33
2022-12-23T03:03:57.137Z,996.34
2022-12-23T03:04:29.569Z,996.33
2022-12-23T03:05:02.066Z,996.35
2022-12-23T03:05:34.548Z,996.36
2022-12-23T03:06:07.089Z,996.36
2022-12-23T03:06:39.591Z,996.39
2022-12-23T03:07:16.755Z,996.37
2022-12-23T03:07:44.561Z,996.38
2022-12-23T03:08:17.038Z,996.40
2022-12-23T03:08:49.470Z,996.38
2022-12-23T03:09:22.003Z,996.39
2022-12-23T03:09:54.604Z,996.41
2022-12-23T03:10:27.092Z,996.38
2022-12-23T03:10:59.557Z,996.41
2022-12-23T03:11:32.094Z,996.44
2022-12-23T03:12:04.597Z,996.41
2022-12-23T03:12:37.211Z,996.42
2022-12-23T03:13:09.739Z,996.44
2022-12-23T03:13:42.310Z,996.45
2022-12-23T03:14:14.902Z,996.46
2022-12-23T03:14:47.352Z,996.44
2022-12-23T03:15:19.813Z,996.44
2022-12-23T03:15:52.323Z,996.46
2022-12-23T03:16:24.889Z,996.48
2022-12-23T03:16:57.312Z,996.52
2022-12-23T03:17:29.826Z,996.49
2022-12-23T03:18:02.332Z,996.53
2022-12-23T03:18:34.929Z,996.56
2022-12-23T03:19:07.353Z,996.56
2022-12-23T03:19:39.844Z,996.58
2022-12-23T03:20:12.352Z,996.61
2022-12-23T03:20:44.956Z,996.60
2022-12-23T03:21:17.473Z,996.62
2022-12-23T03:21:49.919Z,996.65
2022-12-23T03:22:22.385Z,996.65
2022-12-23T03:22:54.831Z,996.67
2022-12-23T03:23:27.344Z,996.66
2022-12-23T03:23:59.765Z,996.68
2022-12-23T03:24:32.231Z,996.68
2022-12-23T03:25:04.674Z,996.70
2022-12-23T03:25:37.196Z,996.69
2022-12-23T03:26:09.702Z,996.69
2022-12-23T03:26:42.222Z,996.68
2022-12-23T03:27:14.733Z,996.68
2022-12-23T03:27:47.243Z,996.71
2022-12-23T03:28:19.760Z,996.71
2022-12-23T03:28:52.251Z,996.71
2022-12-23T03:29:24.780Z,996.69
2022-12-23T03:29:57.205Z,996.70
2022-12-23T03:30:29.703Z,996.73
2022-12-23T03:31:02.220Z,996.71
2022-12-23T03:31:34.713Z,996.71
2022-12-23T03:32:07.157Z,996.69
2022-12-23T03:32:39.652Z,996.67
2022-12-23T03:33:12.139Z,996.68
2022-12-23T03:33:44.582Z,996.64
2022-12-23T03:34:17.008Z,996.65
2022-12-23T03:34:49.482Z,996.65
2022-12-23T03:35:21.932Z,996.64
2022-12-23T03:35:54.455Z,996.65
2022-12-23T03:36:26.938Z,996.68
2022-12-23T03:36:59.451Z,996.67
2022-12-23T03:37:31.929Z,996.66
2022-12-23T03:38:04.434Z,996.66
2022-12-23T03:38:36.956Z,996.66
2022-12-23T03:39:09.473Z,996.64
2022-12-23T03:39:42.007Z,996.63
2022-12-23T03:40:14.511Z,996.67
2022-12-23T03:40:46.982Z,996.71
2022-12-23T03:41:19.561Z,996.71
2022-12-23T03:41:52.053Z,996.71
2022-12-23T03:42:24.607Z,996.75
2022-12-23T03:42:57.093Z,996.76
2022-12-23T03:43:29.608Z,996.76
2022-12-23T03:44:02.124Z,996.79
2022-12-23T03:44:34.617Z,996.82
2022-12-23T03:45:41.136Z,996.84
2022-12-23T03:46:12.164Z,996.87
2022-12-23T03:46:44.631Z,996.87
2022-12-23T03:47:17.055Z,996.88
2022-12-23T03:47:49.546Z,996.90
2022-12-23T03:48:21.977Z,996.91
2022-12-23T03:48:54.513Z,996.92
2022-12-23T03:49:27.106Z,996.94
2022-12-23T03:49:59.721Z,996.96
2022-12-23T03:50:32.205Z,996.95
2022-12-23T03:51:04.661Z,996.98
2022-12-23T03:51:37.147Z,996.97
2022-12-23T03:52:09.629Z,996.95
2022-12-23T03:52:42.072Z,996.97
2022-12-23T03:53:14.588Z,996.97
2022-12-23T03:53:47.115Z,996.99
2022-12-23T03:54:19.668Z,996.99
2022-12-23T03:54:52.195Z,997.04
2022-12-23T03:55:24.703Z,997.02
2022-12-23T03:55:57.141Z,997.00
2022-12-23T03:56:29.567Z,997.01
2022-12-23T03:57:02.127Z,997.01
2022-12-23T03:57:34.644Z,997.00
2022-12-23T03:58:07.149Z,996.99
2022-12-23T03:58:39.722Z,996.99
2022-12-23T03:59:12.234Z,996.99
2022-12-23T03:59:44.715Z,996.99
2022-12-23T04:00:17.203Z,997.00
2022-12-23T04:00:49.653Z,997.01
2022-12-23T04:01:22.184Z,997.00
2022-12-23T04:01:54.670Z,996.98
2022-12-23T04:02:27.114Z,996.95
2022-12-23T04:02:59.768Z,996.97
2022-12-23T04:03:31.986Z,996.95
2022-12-23T04:04:04.573Z,996.90
2022-12-23T04:04:37.003Z,996.89
2022-12-23T04:05:09.526Z,996.90
2022-12-23T04:05:42.035Z,996.90
2022-12-23T04:06:14.556Z,996.89
2022-12-23T04:06:47.059Z,996.87
2022-12-23T04:07:19.620Z,996.88
2022-12-23T04:07:52.169Z,996.86
2022-12-23T04:08:24.634Z,996.86
2022-12-23T04:08:57.090Z,996.86
2022-12-23T04:09:29.617Z,996.86
2022-12-23T04:10:02.258Z,996.84
2022-12-23T04:10:34.776Z,996.83
2022-12-23T04:11:07.212Z,996.82
2022-12-23T04:11:39.756Z,996.84
2022-12-23T04:12:12.231Z,996.83
2022-12-23T04:12:44.769Z,996.86
2022-12-23T04:13:17.278Z,996.85
2022-12-23T04:13:49.793Z,996.86
2022-12-23T04:14:22.252Z,996.86
2022-12-23T04:14:54.801Z,996.87
2022-12-23T04:15:27.232Z,996.86
2022-12-23T04:15:59.724Z,996.88
2022-12-23T04:16:32.248Z,996.88
2022-12-23T04:17:04.570Z,996.89
2022-12-23T04:17:36.996Z,996.91
2022-12-23T04:18:09.468Z,996.90
2022-12-23T04:18:41.977Z,996.89
2022-12-23T04:19:14.557Z,996.90
2022-12-23T04:19:47.011Z,996.90
2022-12-23T04:20:19.522Z,996.91
2022-12-23T04:20:51.959Z,996.91
2022-12-23T04:21:24.403Z,996.90
2022-12-23T04:21:56.902Z,996.90
2022-12-23T04:22:29.335Z,996.90
2022-12-23T04:23:01.802Z,996.90
2022-12-23T04:23:34.344Z,996.91
2022-12-23T04:24:06.816Z,996.92
2022-12-23T04:24:39.239Z,996.91
2022-12-23T04:25:11.810Z,996.91
2022-12-23T04:25:44.340Z,996.92
2022-12-23T04:26:16.944Z,996.94
2022-12-23T04:26:49.461Z,996.95
2022-12-23T04:27:21.968Z,996.95
2022-12-23T04:27:54.468Z,996.97
2022-12-23T04:28:26.904Z,996.95
2022-12-23T04:28:59.460Z,996.97
2022-12-23T04:29:31.970Z,996.98
2022-12-23T04:30:04.482Z,996.97
2022-12-23T04:30:37.019Z,996.99
2022-12-23T04:31:09.544Z,996.97
2022-12-23T04:31:42.041Z,996.97
2022-12-23T04:32:14.404Z,996.99
2022-12-23T04:32:46.914Z,997.00
2022-12-23T04:33:19.364Z,996.99
2022-12-23T04:33:51.861Z,997.00
2022-12-23T04:34:24.245Z,996.99
2022-12-23T04:34:56.796Z,996.98
2022-12-23T04:35:29.299Z,996.98
2022-12-23T04:36:01.756Z,996.98
2022-12-23T04:36:34.227Z,996.97
2022-12-23T04:37:06.749Z,996.96
2022-12-23T04:37:39.339Z,996.96
2022-12-23T04:38:11.873Z,996.95
2022-12-23T04:38:44.378Z,996.96
2022-12-23T04:39:16.823Z,996.98
2022-12-23T04:39:49.335Z,996.98
2022-12-23T04:40:21.851Z,996.98
2022-12-23T04:40:54.317Z,996.97
2022-12-23T04:41:26.769Z,996.96
2022-12-23T04:41:59.209Z,996.97
2022-12-23T04:42:31.725Z,996.98
2022-12-23T04:43:04.348Z,996.98
2022-12-23T04:43:36.831Z,996.98
2022-12-23T04:44:09.338Z,996.99
2022-12-23T04:44:41.812Z,997.00
2022-12-23T04:45:14.272Z,996.99
2022-12-23T04:45:46.788Z,997.00
2022-12-23T04:46:19.305Z,996.99
2022-12-23T04:46:51.892Z,997.01
2022-12-23T04:47:24.283Z,997.00
2022-12-23T04:47:56.858Z,997.00
2022-12-23T04:48:29.274Z,997.00
2022-12-23T04:49:01.798Z,997.02
2022-12-23T04:49:35.155Z,997.01
2022-12-23T04:50:07.636Z,997.02
2022-12-23T04:50:40.074Z,997.03
2022-12-23T04:51:12.596Z,997.02
2022-12-23T04:51:45.096Z,997.03
2022-12-23T04:52:17.624Z,997.04
2022-12-23T04:52:50.099Z,997.03
2022-12-23T04:53:22.547Z,997.05
2022-12-23T04:53:55.008Z,997.05
2022-12-23T04:54:27.475Z,997.05
2022-12-23T04:54:59.996Z,997.04
2022-12-23T04:55:32.601Z,997.06
2022-12-23T04:56:05.100Z,997.04
2022-12-23T04:56:37.616Z,997.06
2022-12-23T04:57:10.028Z,997.06
2022-12-23T04:57:42.518Z,997.07
2022-12-23T04:58:15.012Z,997.07
2022-12-23T04:58:54.637Z,997.08
2022-12-23T04:59:27.113Z,997.10
2022-12-23T04:59:59.602Z,997.12
2022-12-23T05:00:37.286Z,997.13
2022-12-23T05:01:04.635Z,997.12
2022-12-23T05:01:37.206Z,997.14
2022-12-23T05:02:09.755Z,997.16
2022-12-23T05:02:42.386Z,997.16
2022-12-23T05:03:14.858Z,997.19
2022-12-23T05:03:47.373Z,997.19
2022-12-23T05:04:20.024Z,997.23
2022-12-23T05:04:52.385Z,997.20
2022-12-23T05:05:24.928Z,997.23
2022-12-23T05:05:57.460Z,997.23
2022-12-23T05:06:29.959Z,997.24
2022-12-23T05:07:02.451Z,997.25
2022-12-23T05:07:34.959Z,997.27
2022-12-23T05:08:07.438Z,997.28
2022-12-23T05:08:39.934Z,997.30
2022-12-23T05:09:12.431Z,997.30
2022-12-23T05:09:44.963Z,997.29
2022-12-23T05:10:17.494Z,997.30
2022-12-23T05:10:50.067Z,997.31
2022-12-23T05:11:22.568Z,997.31
2022-12-23T05:11:55.024Z,997.31
2022-12-23T05:12:27.499Z,997.31
2022-12-23T05:13:00.175Z,997.34
2022-12-23T05:13:32.670Z,997.33
2022-12-23T05:14:05.161Z,997.33
2022-12-23T05:14:37.605Z,997.36
2022-12-23T05:15:10.182Z,997.37
2022-12-23T05:15:42.768Z,997.41
2022-12-23T05:16:15.339Z,997.42
2022-12-23T05:16:47.902Z,997.46
2022-12-23T05:17:20.321Z,997.47
2022-12-23T05:17:52.856Z,997.47
2022-12-23T05:18:25.369Z,997.49
2022-12-23T05:18:57.854Z,997.51
2022-12-23T05:19:30.317Z,997.51
2022-12-23T05:20:02.874Z,997.52
2022-12-23T05:20:35.393Z,997.49
2022-12-23T05:21:07.922Z,997.47
2022-12-23T05:21:40.390Z,997.44
2022-12-23T05:22:12.885Z,997.43
2022-12-23T05:22:45.349Z,997.43
2022-12-23T05:23:17.803Z,997.43
2022-12-23T05:23:50.339Z,997.43
2022-12-23T05:24:22.848Z,997.43
2022-12-23T05:24:55.361Z,997.43
2022-12-23T05:25:27.885Z,997.44
2022-12-23T05:26:00.435Z,997.44
2022-12-23T05:26:32.897Z,997.44
2022-12-23T05:27:05.432Z,997.45
2022-12-23T05:27:37.992Z,997.43
2022-12-23T05:28:11.428Z,997.45
2022-12-23T05:28:43.874Z,997.45
2022-12-23T05:29:16.345Z,997.42
2022-12-23T05:29:48.809Z,997.41
2022-12-23T05:30:21.331Z,997.39
2022-12-23T05:30:53.811Z,997.39
2022-12-23T05:31:26.283Z,997.41
2022-12-23T05:31:58.926Z,997.40
2022-12-23T05:32:31.298Z,997.41
2022-12-23T05:33:03.911Z,997.38
2022-12-23T05:33:36.319Z,997.39
2022-12-23T05:34:08.799Z,997.39
2022-12-23T05:35:00.618Z,997.37
2022-12-23T05:35:33.212Z,997.38
2022-12-23T05:36:06.065Z,997.35
2022-12-23T05:36:38.498Z,997.35
2022-12-23T05:37:10.986Z,997.33
2022-12-23T05:37:43.422Z,997.34
2022-12-23T05:38:15.908Z,997.31
2022-12-23T05:38:48.345Z,997.30
2022-12-23T05:39:20.816Z,997.30
2022-12-23T05:39:53.367Z,997.31
2022-12-23T05:40:29.274Z,997.32
2022-12-23T05:40:58.346Z,997.32
2022-12-23T05:41:30.814Z,997.30
2022-12-23T05:42:03.359Z,997.31
2022-12-23T05:42:35.820Z,997.31
2022-12-23T05:43:08.239Z,997.29
2022-12-23T05:43:40.739Z,997.29
2022-12-23T05:44:13.213Z,997.28
2022-12-23T05:44:45.688Z,997.28
2022-12-23T05:45:18.195Z,997.28
2022-12-23T05:45:50.716Z,997.27
2022-12-23T05:46:26.540Z,997.25
2022-12-23T05:46:55.739Z,997.25
2022-12-23T05:47:28.222Z,997.23
2022-12-23T05:48:00.718Z,997.24
2022-12-23T05:48:33.258Z,997.24
2022-12-23T05:49:05.730Z,997.25
2022-12-23T05:49:38.209Z,997.27
2022-12-23T05:50:10.745Z,997.28
2022-12-23T05:50:43.292Z,997.27
2022-12-23T05:51:15.735Z,997.26
2022-12-23T05:51:48.201Z,997.27
2022-12-23T05:52:20.677Z,997.25
2022-12-23T05:52:53.173Z,997.25
2022-12-23T05:53:25.685Z,997.23
2022-12-23T05:53:58.219Z,997.24
2022-12-23T05:54:30.724Z,997.24
2022-12-23T05:55:03.166Z,997.26
2022-12-23T05:55:35.626Z,997.28
2022-12-23T05:56:08.223Z,997.30
2022-12-23T05:56:40.749Z,997.32
2022-12-23T05:57:13.292Z,997.35
2022-12-23T05:57:45.818Z,997.37
2022-12-23T05:58:18.386Z,997.37
2022-12-23T05:58:50.898Z,997.38
2022-12-23T05:59:26.480Z,997.41
2022-12-23T05:59:55.901Z,997.42
2022-12-23T06:00:28.486Z,997.42
2022-12-23T06:01:01.045Z,997.45
2022-12-23T06:01:33.731Z,997.44
2022-12-23T06:02:06.162Z,997.45
2022-12-23T06:02:38.621Z,997.48
2022-12-23T06:03:11.165Z,997.48
2022-12-23T06:03:43.669Z,997.50
2022-12-23T06:04:16.054Z,997.50
2022-12-23T06:04:48.467Z,997.52
2022-12-23T06:05:20.966Z,997.52
2022-12-23T06:05:53.409Z,997.54
2022-12-23T06:06:25.892Z,997.54
2022-12-23T06:06:58.467Z,997.56
2022-12-23T06:07:30.987Z,997.55
2022-12-23T06:08:03.517Z,997.58
2022-12-23T06:08:36.037Z,997.58
2022-12-23T06:09:08.512Z,997.60
2022-12-23T06:09:41.048Z,997.60
2022-12-23T06:10:13.499Z,997.61
2022-12-23T06:10:45.961Z,997.62
2022-12-23T06:11:18.433Z,997.62
2022-12-23T06:11:50.882Z,997.64
2022-12-23T06:12:23.359Z,997.64
2022-12-23T06:12:55.823Z,997.66
2022-12-23T06:13:28.345Z,997.67
2022-12-23T06:14:00.814Z,997.66
2022-12-23T06:14:33.288Z,997.66
2022-12-23T06:15:05.776Z,997.65
2022-12-23T06:15:38.233Z,997.64
2022-12-23T06:16:10.792Z,997.65
2022-12-23T06:16:43.233Z,997.65
2022-12-23T06:17:15.662Z,997.68
2022-12-23T06:17:48.085Z,997.68
2022-12-23T06:18:20.592Z,997.69
2022-12-23T06:18:53.080Z,997.71
2022-12-23T06:19:25.627Z,997.70
2022-12-23T06:19:58.089Z,997.72
2022-12-23T06:20:30.560Z,997.73
2022-12-23T06:21:03.074Z,997.74
2022-12-23T06:21:35.590Z,997.74
2022-12-23T06:22:08.062Z,997.76
2022-12-23T06:22:40.490Z,997.75
2022-12-23T06:23:13.013Z,997.77
2022-12-23T06:23:45.591Z,997.79
2022-12-23T06:24:18.107Z,997.78
2022-12-23T06:24:50.614Z,997.77
2022-12-23T06:25:23.144Z,997.78
2022-12-23T06:25:55.651Z,997.80
2022-12-23T06:26:28.221Z,997.80
2022-12-23T06:27:00.670Z,997.83
2022-12-23T06:27:33.159Z,997.84
2022-12-23T06:28:05.664Z,997.81
2022-12-23T06:28:38.222Z,997.81
2022-12-23T06:29:10.748Z,997.81
2022-12-23T06:29:43.239Z,997.81
2022-12-23T06:30:15.837Z,997.81
2022-12-23T06:30:48.277Z,997.82
2022-12-23T06:31:20.860Z,997.83
2022-12-23T06:31:53.410Z,997.83
2022-12-23T06:32:25.947Z,997.84
2022-12-23T06:32:58.501Z,997.85
2022-12-23T06:33:30.940Z,997.87
2022-12-23T06:34:03.589Z,997.85
2022-12-23T06:34:36.106Z,997.87
2022-12-23T06:35:08.579Z,997.88
2022-12-23T06:35:41.125Z,997.88
2022-12-23T06:36:13.652Z,997.86
2022-12-23T06:36:46.158Z,997.88
2022-12-23T06:37:18.605Z,997.88
2022-12-23T06:37:51.249Z,997.88
2022-12-23T06:38:23.822Z,997.89
2022-12-23T06:38:56.347Z,997.90
2022-12-23T06:39:29.468Z,997.89
2022-12-23T06:40:02.018Z,997.89
2022-12-23T06:40:34.567Z,997.89
2022-12-23T06:41:07.112Z,997.88
2022-12-23T06:41:39.673Z,997.88
2022-12-23T06:42:12.184Z,997.89
2022-12-23T06:42:44.719Z,997.88
2022-12-23T06:43:17.214Z,997.87
2022-12-23T06:43:54.129Z,997.87
2022-12-23T06:44:22.144Z,997.88
2022-12-23T06:44:54.604Z,997.87
2022-12-23T06:45:27.075Z,997.88
2022-12-23T06:45:59.595Z,997.88
2022-12-23T06:46:32.213Z,997.88